sensor_id;sensor_type;location;lat;lon;timestamp;P1;durP1;ratioP1;P2;durP2;ratioP2
19205;SDS011;59358;52.134;5.596;2022-12-05T00:01:20;71.20;;;34.80;;
19205;SDS011;59358;52.134;5.596;2022-12-05T00:03:49;74.63;;;34.10;;
19205;SDS011;59358;52.134;5.596;2022-12-05T00:06:17;69.40;;;32.83;;
19205;SDS011;59358;52.134;5.596;2022-12-05T00:08:44;71.00;;;34.78;;
19205;SDS011;59358;52.134;5.596;2022-12-05T00:11:11;69.85;;;33.55;;
19205;SDS011;59358;52.134;5.596;2022-12-05T00:13:39;71.47;;;34.45;;
19205;SDS011;59358;52.134;5.596;2022-12-05T00:16:07;68.93;;;34.00;;
19205;SDS011;59358;52.134;5.596;2022-12-05T00:18:36;74.47;;;33.33;;
19205;SDS011;59358;52.134;5.596;2022-12-05T00:21:04;63.00;;;32.50;;
19205;SDS011;59358;52.134;5.596;2022-12-05T00:23:31;69.00;;;33.35;;
19205;SDS011;59358;52.134;5.596;2022-12-05T00:26:00;61.95;;;32.25;;
19205;SDS011;59358;52.134;5.596;2022-12-05T00:28:27;69.65;;;34.42;;
19205;SDS011;59358;52.134;5.596;2022-12-05T00:30:54;61.85;;;31.02;;
19205;SDS011;59358;52.134;5.596;2022-12-05T00:33:21;67.57;;;34.25;;
19205;SDS011;59358;52.134;5.596;2022-12-05T00:35:49;70.80;;;36.03;;
19205;SDS011;59358;52.134;5.596;2022-12-05T00:38:16;75.32;;;34.33;;
19205;SDS011;59358;52.134;5.596;2022-12-05T00:40:42;71.65;;;33.83;;
19205;SDS011;59358;52.134;5.596;2022-12-05T00:43:09;70.65;;;35.13;;
19205;SDS011;59358;52.134;5.596;2022-12-05T00:45:36;70.60;;;36.67;;
19205;SDS011;59358;52.134;5.596;2022-12-05T00:48:03;72.88;;;33.83;;
19205;SDS011;59358;52.134;5.596;2022-12-05T00:50:30;67.15;;;35.45;;
19205;SDS011;59358;52.134;5.596;2022-12-05T00:52:58;66.25;;;33.47;;
19205;SDS011;59358;52.134;5.596;2022-12-05T00:55:25;71.95;;;36.00;;
19205;SDS011;59358;52.134;5.596;2022-12-05T00:57:52;70.40;;;36.00;;
19205;SDS011;59358;52.134;5.596;2022-12-05T01:00:19;75.55;;;35.80;;
19205;SDS011;59358;52.134;5.596;2022-12-05T01:02:46;75.53;;;35.80;;
19205;SDS011;59358;52.134;5.596;2022-12-05T01:05:12;82.05;;;39.35;;
19205;SDS011;59358;52.134;5.596;2022-12-05T01:07:39;75.35;;;37.00;;
19205;SDS011;59358;52.134;5.596;2022-12-05T01:10:08;76.93;;;35.72;;
19205;SDS011;59358;52.134;5.596;2022-12-05T01:12:35;75.72;;;37.38;;
19205;SDS011;59358;52.134;5.596;2022-12-05T01:15:02;74.30;;;36.33;;
19205;SDS011;59358;52.134;5.596;2022-12-05T01:17:29;77.82;;;36.05;;
19205;SDS011;59358;52.134;5.596;2022-12-05T01:19:56;83.93;;;39.38;;
19205;SDS011;59358;52.134;5.596;2022-12-05T01:22:23;72.97;;;35.80;;
19205;SDS011;59358;52.134;5.596;2022-12-05T01:24:50;78.88;;;39.00;;
19205;SDS011;59358;52.134;5.596;2022-12-05T01:27:18;81.75;;;36.38;;
19205;SDS011;59358;52.134;5.596;2022-12-05T01:29:45;81.32;;;36.33;;
19205;SDS011;59358;52.134;5.596;2022-12-05T01:32:11;88.07;;;38.47;;
19205;SDS011;59358;52.134;5.596;2022-12-05T01:34:38;81.07;;;36.65;;
19205;SDS011;59358;52.134;5.596;2022-12-05T01:37:05;83.00;;;38.92;;
19205;SDS011;59358;52.134;5.596;2022-12-05T01:39:32;84.53;;;36.88;;
19205;SDS011;59358;52.134;5.596;2022-12-05T01:41:59;87.38;;;39.90;;
19205;SDS011;59358;52.134;5.596;2022-12-05T01:47:27;85.90;;;37.63;;
19205;SDS011;59358;52.134;5.596;2022-12-05T01:49:56;92.57;;;39.70;;
19205;SDS011;59358;52.134;5.596;2022-12-05T01:52:24;80.57;;;38.58;;
19205;SDS011;59358;52.134;5.596;2022-12-05T01:54:53;84.30;;;39.13;;
19205;SDS011;59358;52.134;5.596;2022-12-05T01:57:24;84.22;;;38.38;;
19205;SDS011;59358;52.134;5.596;2022-12-05T01:59:52;84.90;;;36.50;;
19205;SDS011;59358;52.134;5.596;2022-12-05T02:02:24;80.60;;;36.10;;
19205;SDS011;59358;52.134;5.596;2022-12-05T02:04:55;82.50;;;37.67;;
19205;SDS011;59358;52.134;5.596;2022-12-05T02:07:26;79.13;;;37.53;;
19205;SDS011;59358;52.134;5.596;2022-12-05T02:09:53;78.15;;;37.08;;
19205;SDS011;59358;52.134;5.596;2022-12-05T02:12:20;83.93;;;37.75;;
19205;SDS011;59358;52.134;5.596;2022-12-05T02:14:51;77.07;;;36.95;;
19205;SDS011;59358;52.134;5.596;2022-12-05T02:17:45;86.38;;;38.35;;
19205;SDS011;59358;52.134;5.596;2022-12-05T02:20:25;90.55;;;39.10;;
19205;SDS011;59358;52.134;5.596;2022-12-05T02:23:23;86.00;;;36.65;;
19205;SDS011;59358;52.134;5.596;2022-12-05T02:26:00;84.00;;;37.53;;
19205;SDS011;59358;52.134;5.596;2022-12-05T02:29:03;83.70;;;37.53;;
19205;SDS011;59358;52.134;5.596;2022-12-05T02:31:49;80.93;;;35.75;;
19205;SDS011;59358;52.134;5.596;2022-12-05T02:34:21;81.45;;;36.35;;
19205;SDS011;59358;52.134;5.596;2022-12-05T02:36:52;78.55;;;37.00;;
19205;SDS011;59358;52.134;5.596;2022-12-05T02:39:23;76.75;;;37.03;;
19205;SDS011;59358;52.134;5.596;2022-12-05T02:41:58;85.15;;;38.13;;
19205;SDS011;59358;52.134;5.596;2022-12-05T02:44:29;80.95;;;37.20;;
19205;SDS011;59358;52.134;5.596;2022-12-05T02:47:02;78.60;;;35.90;;
19205;SDS011;59358;52.134;5.596;2022-12-05T02:49:32;81.22;;;37.13;;
19205;SDS011;59358;52.134;5.596;2022-12-05T02:52:03;78.38;;;36.80;;
19205;SDS011;59358;52.134;5.596;2022-12-05T02:54:34;82.85;;;35.17;;
19205;SDS011;59358;52.134;5.596;2022-12-05T02:57:03;77.32;;;35.80;;
19205;SDS011;59358;52.134;5.596;2022-12-05T02:59:31;76.78;;;35.15;;
19205;SDS011;59358;52.134;5.596;2022-12-05T03:01:58;72.82;;;34.03;;
19205;SDS011;59358;52.134;5.596;2022-12-05T03:04:26;71.90;;;34.92;;
19205;SDS011;59358;52.134;5.596;2022-12-05T03:06:56;72.72;;;34.85;;
19205;SDS011;59358;52.134;5.596;2022-12-05T03:09:26;73.25;;;34.30;;
19205;SDS011;59358;52.134;5.596;2022-12-05T03:11:59;69.97;;;32.72;;
19205;SDS011;59358;52.134;5.596;2022-12-05T03:14:32;64.07;;;30.90;;
19205;SDS011;59358;52.134;5.596;2022-12-05T03:17:02;66.63;;;31.48;;
19205;SDS011;59358;52.134;5.596;2022-12-05T03:19:36;66.05;;;30.88;;
19205;SDS011;59358;52.134;5.596;2022-12-05T03:22:12;63.88;;;30.05;;
19205;SDS011;59358;52.134;5.596;2022-12-05T03:24:43;67.18;;;31.17;;
19205;SDS011;59358;52.134;5.596;2022-12-05T03:27:13;63.63;;;30.88;;
19205;SDS011;59358;52.134;5.596;2022-12-05T03:29:49;61.13;;;31.33;;
19205;SDS011;59358;52.134;5.596;2022-12-05T03:32:21;60.80;;;29.83;;
19205;SDS011;59358;52.134;5.596;2022-12-05T03:34:57;64.47;;;30.75;;
19205;SDS011;59358;52.134;5.596;2022-12-05T03:37:29;59.75;;;30.42;;
19205;SDS011;59358;52.134;5.596;2022-12-05T03:40:03;62.40;;;30.17;;
19205;SDS011;59358;52.134;5.596;2022-12-05T03:42:34;65.72;;;30.60;;
19205;SDS011;59358;52.134;5.596;2022-12-05T03:45:05;59.13;;;31.35;;
19205;SDS011;59358;52.134;5.596;2022-12-05T03:47:38;62.33;;;30.75;;
19205;SDS011;59358;52.134;5.596;2022-12-05T03:50:15;65.20;;;32.22;;
19205;SDS011;59358;52.134;5.596;2022-12-05T03:52:46;62.72;;;30.55;;
19205;SDS011;59358;52.134;5.596;2022-12-05T03:55:18;59.83;;;30.77;;
19205;SDS011;59358;52.134;5.596;2022-12-05T03:57:47;59.10;;;29.75;;
19205;SDS011;59358;52.134;5.596;2022-12-05T04:00:20;62.00;;;31.10;;
19205;SDS011;59358;52.134;5.596;2022-12-05T04:02:51;64.30;;;31.23;;
19205;SDS011;59358;52.134;5.596;2022-12-05T04:05:22;61.22;;;31.15;;
19205;SDS011;59358;52.134;5.596;2022-12-05T04:07:54;62.58;;;31.50;;
19205;SDS011;59358;52.134;5.596;2022-12-05T04:10:24;65.15;;;33.03;;
19205;SDS011;59358;52.134;5.596;2022-12-05T04:12:54;61.88;;;31.17;;
19205;SDS011;59358;52.134;5.596;2022-12-05T04:15:41;67.47;;;32.83;;
19205;SDS011;59358;52.134;5.596;2022-12-05T04:18:30;63.35;;;31.08;;
19205;SDS011;59358;52.134;5.596;2022-12-05T04:21:00;64.28;;;32.15;;
19205;SDS011;59358;52.134;5.596;2022-12-05T04:23:46;63.33;;;31.20;;
19205;SDS011;59358;52.134;5.596;2022-12-05T04:26:33;64.28;;;31.95;;
19205;SDS011;59358;52.134;5.596;2022-12-05T04:29:04;68.18;;;34.03;;
19205;SDS011;59358;52.134;5.596;2022-12-05T04:31:38;64.15;;;33.22;;
19205;SDS011;59358;52.134;5.596;2022-12-05T04:34:09;68.43;;;34.78;;
19205;SDS011;59358;52.134;5.596;2022-12-05T04:36:42;72.97;;;35.67;;
19205;SDS011;59358;52.134;5.596;2022-12-05T04:39:13;74.57;;;34.05;;
19205;SDS011;59358;52.134;5.596;2022-12-05T04:41:44;73.05;;;34.65;;
19205;SDS011;59358;52.134;5.596;2022-12-05T04:44:16;65.03;;;32.40;;
19205;SDS011;59358;52.134;5.596;2022-12-05T04:46:45;64.95;;;31.80;;
19205;SDS011;59358;52.134;5.596;2022-12-05T04:49:16;69.88;;;33.53;;
19205;SDS011;59358;52.134;5.596;2022-12-05T04:51:48;74.10;;;34.80;;
19205;SDS011;59358;52.134;5.596;2022-12-05T04:54:19;72.05;;;33.83;;
19205;SDS011;59358;52.134;5.596;2022-12-05T04:56:49;73.05;;;33.45;;
19205;SDS011;59358;52.134;5.596;2022-12-05T04:59:19;71.07;;;34.58;;
19205;SDS011;59358;52.134;5.596;2022-12-05T05:01:47;72.88;;;34.35;;
19205;SDS011;59358;52.134;5.596;2022-12-05T05:04:20;76.80;;;34.08;;
19205;SDS011;59358;52.134;5.596;2022-12-05T05:06:52;75.32;;;35.53;;
19205;SDS011;59358;52.134;5.596;2022-12-05T05:09:19;72.25;;;33.83;;
19205;SDS011;59358;52.134;5.596;2022-12-05T05:11:45;74.30;;;35.55;;
19205;SDS011;59358;52.134;5.596;2022-12-05T05:14:13;77.07;;;35.30;;
19205;SDS011;59358;52.134;5.596;2022-12-05T05:16:40;66.95;;;33.45;;
19205;SDS011;59358;52.134;5.596;2022-12-05T05:19:09;77.00;;;34.13;;
19205;SDS011;59358;52.134;5.596;2022-12-05T05:21:37;74.43;;;34.58;;
19205;SDS011;59358;52.134;5.596;2022-12-05T05:24:06;73.95;;;33.42;;
19205;SDS011;59358;52.134;5.596;2022-12-05T05:26:34;71.55;;;34.60;;
19205;SDS011;59358;52.134;5.596;2022-12-05T05:29:02;71.13;;;33.80;;
19205;SDS011;59358;52.134;5.596;2022-12-05T05:31:30;69.82;;;33.72;;
19205;SDS011;59358;52.134;5.596;2022-12-05T05:33:57;83.25;;;37.60;;
19205;SDS011;59358;52.134;5.596;2022-12-05T05:36:25;99.22;;;44.13;;
19205;SDS011;59358;52.134;5.596;2022-12-05T05:38:53;78.53;;;37.63;;
19205;SDS011;59358;52.134;5.596;2022-12-05T05:41:23;73.80;;;36.47;;
19205;SDS011;59358;52.134;5.596;2022-12-05T05:43:50;69.15;;;34.65;;
19205;SDS011;59358;52.134;5.596;2022-12-05T05:46:19;74.40;;;36.63;;
19205;SDS011;59358;52.134;5.596;2022-12-05T05:48:47;79.57;;;37.45;;
19205;SDS011;59358;52.134;5.596;2022-12-05T05:51:15;79.32;;;38.53;;
19205;SDS011;59358;52.134;5.596;2022-12-05T05:53:43;78.28;;;36.28;;
19205;SDS011;59358;52.134;5.596;2022-12-05T05:56:12;79.45;;;35.45;;
19205;SDS011;59358;52.134;5.596;2022-12-05T05:58:42;70.65;;;35.72;;
19205;SDS011;59358;52.134;5.596;2022-12-05T06:01:10;78.20;;;36.75;;
19205;SDS011;59358;52.134;5.596;2022-12-05T06:03:39;82.50;;;36.78;;
19205;SDS011;59358;52.134;5.596;2022-12-05T06:06:07;82.63;;;36.40;;
19205;SDS011;59358;52.134;5.596;2022-12-05T06:08:36;80.57;;;37.40;;
19205;SDS011;59358;52.134;5.596;2022-12-05T06:11:03;83.03;;;38.28;;
19205;SDS011;59358;52.134;5.596;2022-12-05T06:13:30;85.43;;;37.85;;
19205;SDS011;59358;52.134;5.596;2022-12-05T06:15:59;74.22;;;36.50;;
19205;SDS011;59358;52.134;5.596;2022-12-05T06:18:26;80.60;;;37.40;;
19205;SDS011;59358;52.134;5.596;2022-12-05T06:20:53;88.57;;;39.97;;
19205;SDS011;59358;52.134;5.596;2022-12-05T06:23:21;82.07;;;36.92;;
19205;SDS011;59358;52.134;5.596;2022-12-05T06:25:49;83.80;;;38.05;;
19205;SDS011;59358;52.134;5.596;2022-12-05T06:28:17;80.97;;;37.30;;
19205;SDS011;59358;52.134;5.596;2022-12-05T06:30:45;79.20;;;35.65;;
19205;SDS011;59358;52.134;5.596;2022-12-05T06:33:14;77.03;;;37.70;;
19205;SDS011;59358;52.134;5.596;2022-12-05T06:35:41;77.68;;;35.38;;
19205;SDS011;59358;52.134;5.596;2022-12-05T06:38:08;71.30;;;34.88;;
19205;SDS011;59358;52.134;5.596;2022-12-05T06:40:38;78.28;;;36.40;;
19205;SDS011;59358;52.134;5.596;2022-12-05T06:43:05;78.18;;;37.33;;
19205;SDS011;59358;52.134;5.596;2022-12-05T06:45:32;76.10;;;36.20;;
19205;SDS011;59358;52.134;5.596;2022-12-05T06:47:59;74.50;;;36.75;;
19205;SDS011;59358;52.134;5.596;2022-12-05T06:50:27;70.45;;;34.67;;
19205;SDS011;59358;52.134;5.596;2022-12-05T06:52:54;71.57;;;36.60;;
19205;SDS011;59358;52.134;5.596;2022-12-05T06:55:20;66.72;;;34.28;;
19205;SDS011;59358;52.134;5.596;2022-12-05T06:57:48;73.45;;;35.30;;
19205;SDS011;59358;52.134;5.596;2022-12-05T07:00:15;68.93;;;33.45;;
19205;SDS011;59358;52.134;5.596;2022-12-05T07:02:59;73.13;;;33.92;;
19205;SDS011;59358;52.134;5.596;2022-12-05T07:05:27;68.40;;;32.97;;
19205;SDS011;59358;52.134;5.596;2022-12-05T07:07:54;75.53;;;32.88;;
19205;SDS011;59358;52.134;5.596;2022-12-05T07:10:21;73.53;;;33.40;;
19205;SDS011;59358;52.134;5.596;2022-12-05T07:12:48;67.63;;;31.88;;
19205;SDS011;59358;52.134;5.596;2022-12-05T07:15:14;73.38;;;32.95;;
19205;SDS011;59358;52.134;5.596;2022-12-05T07:17:41;73.80;;;38.35;;
19205;SDS011;59358;52.134;5.596;2022-12-05T07:20:09;75.50;;;38.65;;
19205;SDS011;59358;52.134;5.596;2022-12-05T07:22:38;73.95;;;36.42;;
19205;SDS011;59358;52.134;5.596;2022-12-05T07:25:05;70.55;;;32.88;;
19205;SDS011;59358;52.134;5.596;2022-12-05T07:27:32;66.90;;;32.78;;
19205;SDS011;59358;52.134;5.596;2022-12-05T07:29:59;74.28;;;34.60;;
19205;SDS011;59358;52.134;5.596;2022-12-05T07:32:26;75.30;;;32.38;;
19205;SDS011;59358;52.134;5.596;2022-12-05T07:34:55;69.32;;;34.45;;
19205;SDS011;59358;52.134;5.596;2022-12-05T07:37:22;68.53;;;32.67;;
19205;SDS011;59358;52.134;5.596;2022-12-05T07:39:51;69.68;;;31.77;;
19205;SDS011;59358;52.134;5.596;2022-12-05T07:42:19;64.72;;;31.80;;
19205;SDS011;59358;52.134;5.596;2022-12-05T07:44:45;68.07;;;31.60;;
19205;SDS011;59358;52.134;5.596;2022-12-05T07:47:13;66.70;;;31.67;;
19205;SDS011;59358;52.134;5.596;2022-12-05T07:49:39;69.20;;;33.88;;
19205;SDS011;59358;52.134;5.596;2022-12-05T07:52:06;64.68;;;31.45;;
19205;SDS011;59358;52.134;5.596;2022-12-05T07:54:33;66.50;;;32.20;;
19205;SDS011;59358;52.134;5.596;2022-12-05T07:57:02;68.88;;;30.63;;
19205;SDS011;59358;52.134;5.596;2022-12-05T07:59:29;60.60;;;31.67;;
19205;SDS011;59358;52.134;5.596;2022-12-05T08:01:56;67.55;;;32.05;;
19205;SDS011;59358;52.134;5.596;2022-12-05T08:04:22;61.85;;;29.98;;
19205;SDS011;59358;52.134;5.596;2022-12-05T08:06:49;61.30;;;30.52;;
19205;SDS011;59358;52.134;5.596;2022-12-05T08:09:19;63.22;;;30.77;;
19205;SDS011;59358;52.134;5.596;2022-12-05T08:11:47;64.53;;;30.95;;
19205;SDS011;59358;52.134;5.596;2022-12-05T08:14:15;67.35;;;32.95;;
19205;SDS011;59358;52.134;5.596;2022-12-05T08:16:42;65.50;;;31.95;;
19205;SDS011;59358;52.134;5.596;2022-12-05T08:19:09;63.72;;;33.42;;
19205;SDS011;59358;52.134;5.596;2022-12-05T08:21:38;61.50;;;30.52;;
19205;SDS011;59358;52.134;5.596;2022-12-05T08:24:05;55.53;;;27.90;;
19205;SDS011;59358;52.134;5.596;2022-12-05T08:26:33;66.25;;;29.88;;
19205;SDS011;59358;52.134;5.596;2022-12-05T08:29:02;60.85;;;30.40;;
19205;SDS011;59358;52.134;5.596;2022-12-05T08:31:33;62.25;;;28.70;;
19205;SDS011;59358;52.134;5.596;2022-12-05T08:34:01;60.85;;;29.20;;
19205;SDS011;59358;52.134;5.596;2022-12-05T08:36:29;64.25;;;28.88;;
19205;SDS011;59358;52.134;5.596;2022-12-05T08:38:57;61.40;;;27.45;;
19205;SDS011;59358;52.134;5.596;2022-12-05T08:41:25;59.33;;;29.90;;
19205;SDS011;59358;52.134;5.596;2022-12-05T08:43:54;57.63;;;28.83;;
19205;SDS011;59358;52.134;5.596;2022-12-05T08:46:21;58.28;;;29.88;;
19205;SDS011;59358;52.134;5.596;2022-12-05T08:48:49;55.63;;;28.45;;
19205;SDS011;59358;52.134;5.596;2022-12-05T08:51:16;52.97;;;28.27;;
19205;SDS011;59358;52.134;5.596;2022-12-05T08:53:43;60.15;;;31.25;;
19205;SDS011;59358;52.134;5.596;2022-12-05T08:56:11;56.30;;;30.75;;
19205;SDS011;59358;52.134;5.596;2022-12-05T08:58:38;55.10;;;30.70;;
19205;SDS011;59358;52.134;5.596;2022-12-05T09:01:05;63.92;;;31.23;;
19205;SDS011;59358;52.134;5.596;2022-12-05T09:03:33;53.35;;;27.80;;
19205;SDS011;59358;52.134;5.596;2022-12-05T09:06:08;55.25;;;27.50;;
19205;SDS011;59358;52.134;5.596;2022-12-05T09:08:38;57.63;;;29.92;;
19205;SDS011;59358;52.134;5.596;2022-12-05T09:11:06;49.85;;;26.05;;
19205;SDS011;59358;52.134;5.596;2022-12-05T09:13:35;50.08;;;27.48;;
19205;SDS011;59358;52.134;5.596;2022-12-05T09:16:05;48.25;;;27.48;;
19205;SDS011;59358;52.134;5.596;2022-12-05T09:18:33;51.05;;;27.15;;
19205;SDS011;59358;52.134;5.596;2022-12-05T09:21:03;53.67;;;27.75;;
19205;SDS011;59358;52.134;5.596;2022-12-05T09:23:32;50.08;;;26.95;;
19205;SDS011;59358;52.134;5.596;2022-12-05T09:25:59;48.45;;;28.15;;
19205;SDS011;59358;52.134;5.596;2022-12-05T09:28:29;45.92;;;24.85;;
19205;SDS011;59358;52.134;5.596;2022-12-05T09:30:57;43.10;;;25.10;;
19205;SDS011;59358;52.134;5.596;2022-12-05T09:33:26;46.28;;;24.30;;
19205;SDS011;59358;52.134;5.596;2022-12-05T09:35:53;45.63;;;24.42;;
19205;SDS011;59358;52.134;5.596;2022-12-05T09:38:20;43.05;;;25.35;;
19205;SDS011;59358;52.134;5.596;2022-12-05T09:40:51;43.15;;;25.25;;
19205;SDS011;59358;52.134;5.596;2022-12-05T09:43:24;41.72;;;24.38;;
19205;SDS011;59358;52.134;5.596;2022-12-05T09:45:56;42.55;;;24.63;;
19205;SDS011;59358;52.134;5.596;2022-12-05T09:48:29;40.28;;;24.20;;
19205;SDS011;59358;52.134;5.596;2022-12-05T09:50:58;35.70;;;22.05;;
19205;SDS011;59358;52.134;5.596;2022-12-05T09:53:27;36.72;;;21.23;;
19205;SDS011;59358;52.134;5.596;2022-12-05T09:56:01;37.72;;;22.80;;
19205;SDS011;59358;52.134;5.596;2022-12-05T09:58:38;40.05;;;22.75;;
19205;SDS011;59358;52.134;5.596;2022-12-05T10:01:26;40.35;;;23.83;;
19205;SDS011;59358;52.134;5.596;2022-12-05T10:04:07;55.05;;;30.05;;
19205;SDS011;59358;52.134;5.596;2022-12-05T10:07:02;347.42;;;167.90;;
19205;SDS011;59358;52.134;5.596;2022-12-05T10:09:44;259.98;;;160.05;;
19205;SDS011;59358;52.134;5.596;2022-12-05T10:12:28;149.50;;;102.20;;
19205;SDS011;59358;52.134;5.596;2022-12-05T10:15:13;54.95;;;36.22;;
19205;SDS011;59358;52.134;5.596;2022-12-05T10:17:45;41.08;;;26.05;;
19205;SDS011;59358;52.134;5.596;2022-12-05T10:20:16;54.42;;;35.55;;
19205;SDS011;59358;52.134;5.596;2022-12-05T10:22:48;147.57;;;98.35;;
19205;SDS011;59358;52.134;5.596;2022-12-05T10:25:19;53.67;;;34.55;;
19205;SDS011;59358;52.134;5.596;2022-12-05T10:27:49;39.60;;;24.77;;
19205;SDS011;59358;52.134;5.596;2022-12-05T10:30:18;37.17;;;24.10;;
19205;SDS011;59358;52.134;5.596;2022-12-05T10:32:50;37.50;;;25.35;;
19205;SDS011;59358;52.134;5.596;2022-12-05T10:35:19;42.35;;;24.33;;
19205;SDS011;59358;52.134;5.596;2022-12-05T10:37:48;35.45;;;22.85;;
19205;SDS011;59358;52.134;5.596;2022-12-05T10:40:17;39.40;;;25.08;;
19205;SDS011;59358;52.134;5.596;2022-12-05T10:42:44;42.17;;;26.50;;
19205;SDS011;59358;52.134;5.596;2022-12-05T10:45:15;37.40;;;24.38;;
19205;SDS011;59358;52.134;5.596;2022-12-05T10:47:44;39.22;;;25.00;;
19205;SDS011;59358;52.134;5.596;2022-12-05T10:50:18;47.90;;;32.95;;
19205;SDS011;59358;52.134;5.596;2022-12-05T10:52:48;44.63;;;25.90;;
19205;SDS011;59358;52.134;5.596;2022-12-05T10:55:16;51.17;;;34.92;;
19205;SDS011;59358;52.134;5.596;2022-12-05T10:57:48;73.55;;;56.03;;
19205;SDS011;59358;52.134;5.596;2022-12-05T11:00:19;51.35;;;36.10;;
19205;SDS011;59358;52.134;5.596;2022-12-05T11:02:49;59.63;;;41.75;;
19205;SDS011;59358;52.134;5.596;2022-12-05T11:05:25;54.67;;;41.30;;
19205;SDS011;59358;52.134;5.596;2022-12-05T11:07:56;37.20;;;25.02;;
19205;SDS011;59358;52.134;5.596;2022-12-05T11:10:25;31.45;;;20.10;;
19205;SDS011;59358;52.134;5.596;2022-12-05T11:12:55;37.38;;;22.13;;
19205;SDS011;59358;52.134;5.596;2022-12-05T11:15:26;36.80;;;24.25;;
19205;SDS011;59358;52.134;5.596;2022-12-05T11:17:55;36.22;;;24.02;;
19205;SDS011;59358;52.134;5.596;2022-12-05T11:20:38;36.70;;;23.67;;
19205;SDS011;59358;52.134;5.596;2022-12-05T11:23:24;29.77;;;21.23;;
19205;SDS011;59358;52.134;5.596;2022-12-05T11:25:53;30.15;;;19.27;;
19205;SDS011;59358;52.134;5.596;2022-12-05T11:28:29;25.92;;;17.90;;
19205;SDS011;59358;52.134;5.596;2022-12-05T11:30:59;27.67;;;19.27;;
19205;SDS011;59358;52.134;5.596;2022-12-05T11:33:28;33.72;;;23.23;;
19205;SDS011;59358;52.134;5.596;2022-12-05T11:35:58;95.05;;;55.95;;
19205;SDS011;59358;52.134;5.596;2022-12-05T11:38:28;75.32;;;52.17;;
19205;SDS011;59358;52.134;5.596;2022-12-05T11:41:00;28.00;;;21.67;;
19205;SDS011;59358;52.134;5.596;2022-12-05T11:43:52;17.60;;;11.98;;
19205;SDS011;59358;52.134;5.596;2022-12-05T11:46:42;18.50;;;13.77;;
19205;SDS011;59358;52.134;5.596;2022-12-05T11:49:25;16.85;;;11.30;;
19205;SDS011;59358;52.134;5.596;2022-12-05T11:52:07;15.80;;;10.63;;
19205;SDS011;59358;52.134;5.596;2022-12-05T11:54:49;19.33;;;14.27;;
19205;SDS011;59358;52.134;5.596;2022-12-05T11:57:27;19.70;;;12.10;;
19205;SDS011;59358;52.134;5.596;2022-12-05T12:00:13;15.77;;;10.60;;
19205;SDS011;59358;52.134;5.596;2022-12-05T12:02:52;14.63;;;9.07;;
19205;SDS011;59358;52.134;5.596;2022-12-05T12:05:43;16.92;;;11.52;;
19205;SDS011;59358;52.134;5.596;2022-12-05T12:08:20;17.77;;;12.93;;
19205;SDS011;59358;52.134;5.596;2022-12-05T12:10:54;28.77;;;24.73;;
19205;SDS011;59358;52.134;5.596;2022-12-05T12:13:32;22.35;;;16.90;;
19205;SDS011;59358;52.134;5.596;2022-12-05T12:16:14;17.23;;;13.55;;
19205;SDS011;59358;52.134;5.596;2022-12-05T12:18:54;14.95;;;10.18;;
19205;SDS011;59358;52.134;5.596;2022-12-05T12:21:34;12.63;;;9.50;;
19205;SDS011;59358;52.134;5.596;2022-12-05T12:24:19;17.23;;;9.77;;
19205;SDS011;59358;52.134;5.596;2022-12-05T12:26:55;24.00;;;14.20;;
19205;SDS011;59358;52.134;5.596;2022-12-05T12:29:34;15.00;;;11.55;;
19205;SDS011;59358;52.134;5.596;2022-12-05T12:32:14;18.10;;;11.63;;
19205;SDS011;59358;52.134;5.596;2022-12-05T12:34:58;15.48;;;11.02;;
19205;SDS011;59358;52.134;5.596;2022-12-05T12:38:06;17.48;;;12.07;;
19205;SDS011;59358;52.134;5.596;2022-12-05T12:40:45;19.02;;;11.10;;
19205;SDS011;59358;52.134;5.596;2022-12-05T12:43:19;16.92;;;13.43;;
19205;SDS011;59358;52.134;5.596;2022-12-05T12:46:10;15.15;;;12.40;;
19205;SDS011;59358;52.134;5.596;2022-12-05T12:48:46;16.38;;;10.60;;
19205;SDS011;59358;52.134;5.596;2022-12-05T12:51:24;9.80;;;7.20;;
19205;SDS011;59358;52.134;5.596;2022-12-05T12:54:03;14.57;;;7.22;;
19205;SDS011;59358;52.134;5.596;2022-12-05T12:56:41;12.82;;;6.88;;
19205;SDS011;59358;52.134;5.596;2022-12-05T12:59:21;8.57;;;6.10;;
19205;SDS011;59358;52.134;5.596;2022-12-05T13:02:03;11.15;;;7.05;;
19205;SDS011;59358;52.134;5.596;2022-12-05T13:04:42;10.02;;;7.32;;
19205;SDS011;59358;52.134;5.596;2022-12-05T13:07:16;16.83;;;11.18;;
19205;SDS011;59358;52.134;5.596;2022-12-05T13:09:49;16.50;;;13.85;;
19205;SDS011;59358;52.134;5.596;2022-12-05T13:12:23;12.73;;;8.93;;
19205;SDS011;59358;52.134;5.596;2022-12-05T13:14:54;13.40;;;10.20;;
19205;SDS011;59358;52.134;5.596;2022-12-05T13:17:24;23.70;;;18.13;;
19205;SDS011;59358;52.134;5.596;2022-12-05T13:19:52;25.25;;;17.70;;
19205;SDS011;59358;52.134;5.596;2022-12-05T13:22:23;14.02;;;10.80;;
19205;SDS011;59358;52.134;5.596;2022-12-05T13:24:53;16.00;;;12.73;;
19205;SDS011;59358;52.134;5.596;2022-12-05T13:27:22;20.33;;;15.63;;
19205;SDS011;59358;52.134;5.596;2022-12-05T13:29:52;17.77;;;13.63;;
19205;SDS011;59358;52.134;5.596;2022-12-05T13:32:24;16.60;;;12.80;;
19205;SDS011;59358;52.134;5.596;2022-12-05T13:34:53;17.42;;;13.75;;
19205;SDS011;59358;52.134;5.596;2022-12-05T13:37:24;20.20;;;14.70;;
19205;SDS011;59358;52.134;5.596;2022-12-05T13:40:21;23.45;;;18.58;;
19205;SDS011;59358;52.134;5.596;2022-12-05T13:43:09;14.73;;;8.68;;
19205;SDS011;59358;52.134;5.596;2022-12-05T13:45:37;12.98;;;10.27;;
19205;SDS011;59358;52.134;5.596;2022-12-05T13:48:13;11.38;;;8.20;;
19205;SDS011;59358;52.134;5.596;2022-12-05T13:50:48;13.25;;;9.27;;
19205;SDS011;59358;52.134;5.596;2022-12-05T13:53:23;14.90;;;9.25;;
19205;SDS011;59358;52.134;5.596;2022-12-05T13:55:54;14.95;;;10.10;;
19205;SDS011;59358;52.134;5.596;2022-12-05T13:58:37;16.88;;;9.40;;
19205;SDS011;59358;52.134;5.596;2022-12-05T14:04:20;14.75;;;10.13;;
19205;SDS011;59358;52.134;5.596;2022-12-05T14:07:07;13.45;;;10.98;;
19205;SDS011;59358;52.134;5.596;2022-12-05T14:09:48;15.30;;;9.63;;
19205;SDS011;59358;52.134;5.596;2022-12-05T14:15:24;16.55;;;8.95;;
19205;SDS011;59358;52.134;5.596;2022-12-05T14:17:54;46.80;;;32.03;;
19205;SDS011;59358;52.134;5.596;2022-12-05T14:20:29;17.85;;;13.50;;
19205;SDS011;59358;52.134;5.596;2022-12-05T14:23:13;15.20;;;9.90;;
19205;SDS011;59358;52.134;5.596;2022-12-05T14:26:03;14.63;;;10.00;;
19205;SDS011;59358;52.134;5.596;2022-12-05T14:28:53;12.85;;;7.88;;
19205;SDS011;59358;52.134;5.596;2022-12-05T14:31:37;13.13;;;8.85;;
19205;SDS011;59358;52.134;5.596;2022-12-05T14:34:16;16.00;;;9.93;;
19205;SDS011;59358;52.134;5.596;2022-12-05T14:36:56;16.52;;;11.93;;
19205;SDS011;59358;52.134;5.596;2022-12-05T14:39:38;14.48;;;8.65;;
19205;SDS011;59358;52.134;5.596;2022-12-05T14:42:20;10.02;;;7.45;;
19205;SDS011;59358;52.134;5.596;2022-12-05T14:44:51;15.93;;;9.80;;
19205;SDS011;59358;52.134;5.596;2022-12-05T14:47:21;16.33;;;8.45;;
19205;SDS011;59358;52.134;5.596;2022-12-05T14:49:52;25.98;;;18.40;;
19205;SDS011;59358;52.134;5.596;2022-12-05T14:52:22;21.92;;;14.32;;
19205;SDS011;59358;52.134;5.596;2022-12-05T14:54:51;23.38;;;17.45;;
19205;SDS011;59358;52.134;5.596;2022-12-05T14:57:24;20.08;;;13.68;;
19205;SDS011;59358;52.134;5.596;2022-12-05T14:59:53;14.85;;;10.70;;